Terminal Aerodrome Forecast
Issued by NWS Kansas City/Pleasant Hill, MO

Home | Current Version | Previous Version | Text Only | Print | Product List | Glossary On
Versions: 1 2 3 4 5 6 7 8 9 10 11 12 13 14 15 16 17 18 19 20 21 22 23 24 25 26 27
221
FTUS43 KEAX 302325
TAFMCI
TAF
KMCI 302325Z 3100/3124 34009KT 4SM BR OVC008
      TEMPO 3100/3102 2SM BR
     FM310300 34009KT 4SM BR OVC010
     FM310500 34008KT 4SM BR OVC008
     FM311900 01007KT P6SM OVC020=

USA.gov is the U.S. government's official web portal to all federal, state and local government web resources and services.